Garden Spring, Nevada Weather observations

Data are for 10 minute period ending at time listed.
 Day   Time    Ave.   Ave.  Ave.  Vector   Max.   Stn.    Total    Solar   Ave.  
  of    of     Air    Rel.  Wind   Wind    Wind   Baro.  Precip.   Rad.    Soil  
Year   Day     Temp.  Hum.  Speed  Dir.    Gust   Pres.                    Temp. 
2016   (PST)    F      %     mph   deg.    mph     mb.     in.     W/m2     F    
--------------------------------------------------------------------------------- 
 176    1:00   72.1    17    4.3   266      6.7   852.2    0.00       0    85.7  
 176    2:00   71.2    17    2.3   269      5.9   852.0    0.00       0    84.6  
 176    3:00   70.0    18    4.6   276      6.8   852.1    0.00       0    83.7  
 176    4:00   68.5    20    4.5   275      6.7   852.2    0.00       0    82.8  
 176    5:00   68.9    21    4.1   275      6.0   852.5    0.00      23    82.1  
 176    6:00   77.1    18    2.6   285      4.6   852.6    0.00     176    82.6  
 176    7:00   84.4    13    3.9   127     10.0   852.9    0.00     374    82.3  
 176    8:00   85.4    13    6.9   159     14.3   853.1    0.00     572    81.3  
 176    9:00   87.1    13    6.5   152     12.7   853.1    0.00     749    81.5  
 176   10:00   89.0    12    6.5   159     15.1   853.0    0.00     890    82.8  
 176   11:00   90.8    12    6.9   161     15.1   852.8    0.00     982    84.8  
 176   12:00   92.0    11    6.2   156     14.6   852.4    0.00    1014    87.0  
 176   13:00   93.5    10    6.3   178     19.0   851.9    0.00     990    89.4  
 176   14:00   94.3    10    7.0   177     18.1   851.4    0.00     900    91.8  
 176   15:00   95.5     9    6.9   208     19.6   850.9    0.00     802    93.5  
 176   16:00   95.5     8    6.3   228     14.8   850.4    0.00     639    94.2  
 176   17:00   94.6     7    6.2   220     15.0   849.9    0.00     428    94.0  
 176   18:00   92.8     8    4.7   221     13.2   849.8    0.00     224    93.3  
 176   19:00   89.0     8    4.9   217      9.2   850.1    0.00      49    92.2  
 176   20:00   85.5     9    6.1   215     13.6   850.5    0.00       1    91.1  
 176   21:00   82.3    11    4.9   235      8.6   851.0    0.00       0    90.1  
 176   22:00   76.0    13    3.9   281      6.5   851.4    0.00       0    88.8  
 176   23:00   77.2    11    4.0   246      8.2   851.6    0.00       0    87.9  
 177    0:00   75.3    11    4.6   258      8.6   851.7    0.00       0    86.8  

Return to Garden Spring, Nevada graphs page.


Western Regional Climate Center,wrcc@dri.edu